Time;durP1;ratioP1;P1;durP2;ratioP2;P2;SDS_P1;SDS_P2;PMS_P1;PMS_P2;Temp;Humidity;BMP_temperature;BMP_pressure;BME280_temperature;BME280_humidity;BME280_pressure;Samples;Min_cycle;Max_cycle;Signal;HPM_P1;HPM_P2
2023/05/21 00:01:04;;;;;;;7.20;4.50;;;17.40;99.90;;;;;;5110184;28;20817;-70
2023/05/21 00:03:31;;;;;;;8.23;4.80;;;17.40;1.00;;;;;;5110919;28;20451;-71
2023/05/21 00:06:00;;;;;;;6.27;4.70;;;17.40;1.00;;;;;;5110342;28;21045;-71
2023/05/21 00:08:27;;;;;;;8.23;5.50;;;17.40;99.90;;;;;;5110979;28;20484;-71
2023/05/21 00:10:53;;;;;;;5.60;4.37;;;17.30;99.90;;;;;;5112702;28;20439;-71
2023/05/21 00:13:20;;;;;;;6.97;4.63;;;17.20;1.00;;;;;;5115082;28;20517;-71
2023/05/21 00:15:48;;;;;;;6.30;4.07;;;17.20;1.00;;;;;;5114176;28;20470;-71
2023/05/21 00:18:16;;;;;;;6.50;4.80;;;17.20;1.00;;;;;;5115692;28;20447;-70
2023/05/21 00:20:42;;;;;;;6.67;4.67;;;17.20;1.00;;;;;;5114696;28;20447;-71
2023/05/21 00:23:09;;;;;;;6.50;4.60;;;17.10;1.00;;;;;;5115338;28;20447;-71
2023/05/21 00:25:36;;;;;;;7.83;4.30;;;16.90;99.90;;;;;;5112958;28;20448;-70
2023/05/21 00:28:03;;;;;;;7.10;4.83;;;16.80;99.90;;;;;;5114546;28;20446;-70
2023/05/21 00:30:30;;;;;;;6.97;5.00;;;16.70;99.90;;;;;;5114855;28;20960;-70
2023/05/21 00:33:01;;;;;;;5.80;4.00;;;16.50;99.90;;;;;;5114573;28;20444;-70
2023/05/21 00:35:28;;;;;;;5.80;4.23;;;16.50;99.90;;;;;;5114697;28;20635;-70
2023/05/21 00:37:54;;;;;;;7.20;4.87;;;16.50;99.90;;;;;;5114259;28;20447;-71
2023/05/21 00:40:21;;;;;;;6.63;4.70;;;16.50;99.90;;;;;;5114675;28;20963;-70
2023/05/21 00:42:48;;;;;;;7.53;5.50;;;16.50;99.90;;;;;;5114207;28;20489;-70
2023/05/21 00:45:15;;;;;;;8.40;5.57;;;16.50;99.90;;;;;;5114557;28;20448;-72
2023/05/21 00:47:43;;;;;;;7.30;4.73;;;16.50;99.90;;;;;;5114270;28;20494;-72
2023/05/21 00:50:13;;;;;;;6.60;5.00;;;16.40;99.90;;;;;;5114502;28;20458;-72
2023/05/21 00:52:42;;;;;;;8.90;5.83;;;16.30;99.90;;;;;;5114638;28;20483;-74
2023/05/21 00:55:10;;;;;;;6.83;4.80;;;16.20;99.90;;;;;;5098692;28;20486;-71
2023/05/21 00:57:38;;;;;;;8.17;4.90;;;16.20;99.90;;;;;;5108210;28;20456;-72
2023/05/21 01:00:07;;;;;;;8.20;5.00;;;16.20;99.90;;;;;;5114298;28;20435;-71
2023/05/21 01:02:35;;;;;;;8.50;5.73;;;16.30;99.90;;;;;;5114340;28;20443;-71
2023/05/21 01:05:04;;;;;;;9.50;4.90;;;16.10;99.90;;;;;;5113632;28;20444;-71
2023/05/21 01:07:34;;;;;;;5.93;4.83;;;16.00;99.90;;;;;;5114080;28;20594;-72
2023/05/21 01:10:03;;;;;;;6.90;5.00;;;16.10;99.90;;;;;;5113401;28;20525;-72
2023/05/21 01:12:31;;;;;;;6.17;4.90;;;15.80;99.90;;;;;;5114152;28;20443;-72
2023/05/21 01:14:59;;;;;;;7.60;5.00;;;15.90;99.90;;;;;;5113043;28;20954;-72
2023/05/21 01:17:27;;;;;;;9.07;5.13;;;16.00;99.90;;;;;;5114195;28;20448;-72
2023/05/21 01:19:55;;;;;;;9.03;5.57;;;16.00;99.90;;;;;;5113771;28;20450;-72
2023/05/21 01:22:23;;;;;;;7.20;5.13;;;15.90;99.90;;;;;;5113880;28;20466;-72
2023/05/21 01:24:54;;;;;;;8.63;5.90;;;15.80;99.90;;;;;;5113125;28;20497;-72
2023/05/21 01:27:21;;;;;;;7.23;4.83;;;15.70;99.90;;;;;;5112810;28;20769;-72
2023/05/21 01:29:48;;;;;;;7.30;5.00;;;15.80;99.90;;;;;;5113064;28;20466;-72
2023/05/21 01:32:22;;;;;;;7.77;5.03;;;15.90;99.90;;;;;;5114035;28;20447;-72
2023/05/21 01:34:56;;;;;;;8.30;6.37;;;15.70;99.90;;;;;;5113069;28;20439;-73
2023/05/21 01:37:29;;;;;;;7.30;4.40;;;15.60;99.90;;;;;;5114006;28;20509;-70
2023/05/21 01:40:09;;;;;;;10.10;5.03;;;15.60;99.90;;;;;;5113338;28;20448;-70
2023/05/21 01:42:39;;;;;;;6.87;4.80;;;15.70;99.90;;;;;;5113834;28;20768;-70
2023/05/21 01:45:08;;;;;;;6.30;5.40;;;15.70;99.90;;;;;;5113782;28;20443;-70
2023/05/21 01:47:37;;;;;;;7.97;5.70;;;15.70;99.90;;;;;;5113881;28;20832;-70
2023/05/21 01:50:05;;;;;;;9.30;5.83;;;15.70;99.90;;;;;;5113111;28;20462;-70
2023/05/21 01:52:32;;;;;;;7.43;5.50;;;15.60;99.90;;;;;;5113649;28;20479;-70
2023/05/21 01:55:00;;;;;;;7.40;4.63;;;15.70;99.90;;;;;;5111583;28;20452;-70
2023/05/21 01:57:27;;;;;;;8.13;5.93;;;15.50;99.90;;;;;;5105808;28;20459;-71
2023/05/21 01:59:55;;;;;;;8.00;5.27;;;15.60;99.90;;;;;;5106343;28;20449;-71
2023/05/21 02:02:21;;;;;;;7.43;4.80;;;15.60;99.90;;;;;;5105782;28;20496;-72
2023/05/21 02:04:48;;;;;;;8.27;5.67;;;15.60;99.90;;;;;;5112146;28;20444;-72
2023/05/21 02:07:17;;;;;;;7.37;5.07;;;15.60;99.90;;;;;;5112978;28;20541;-72
2023/05/21 02:09:44;;;;;;;6.50;4.60;;;15.50;99.90;;;;;;5111885;28;20467;-72
2023/05/21 02:12:12;;;;;;;6.17;4.97;;;15.40;99.90;;;;;;5112421;28;20447;-72
2023/05/21 02:14:39;;;;;;;7.50;5.83;;;15.30;99.90;;;;;;5112710;28;20464;-71
2023/05/21 02:17:06;;;;;;;7.10;4.60;;;15.40;99.90;;;;;;5113096;28;20501;-72
2023/05/21 02:19:33;;;;;;;8.57;5.10;;;15.20;99.90;;;;;;5112999;28;20788;-72
2023/05/21 02:22:00;;;;;;;5.90;4.70;;;15.20;99.90;;;;;;5111948;28;20882;-72
2023/05/21 02:24:28;;;;;;;8.10;4.70;;;15.30;99.90;;;;;;5112491;28;20440;-70
2023/05/21 02:26:55;;;;;;;6.40;4.87;;;15.40;99.90;;;;;;5109866;28;20522;-71
2023/05/21 02:29:23;;;;;;;7.70;5.83;;;15.30;99.90;;;;;;5112725;28;20519;-72
2023/05/21 02:31:50;;;;;;;7.47;4.20;;;15.20;99.90;;;;;;5111938;28;20448;-72
2023/05/21 02:34:19;;;;;;;8.03;5.43;;;15.00;99.90;;;;;;5111670;28;20844;-70
2023/05/21 02:36:47;;;;;;;9.10;5.73;;;15.00;99.90;;;;;;5111928;28;20443;-70
2023/05/21 02:39:14;;;;;;;5.90;4.97;;;14.90;99.90;;;;;;5112224;28;20935;-70
2023/05/21 02:41:41;;;;;;;8.30;5.87;;;14.80;99.90;;;;;;5111908;28;20454;-73
2023/05/21 02:44:07;;;;;;;6.60;5.90;;;15.00;99.90;;;;;;5112170;28;20813;-70
2023/05/21 02:46:35;;;;;;;9.47;6.30;;;14.80;99.90;;;;;;5112215;28;20436;-70
2023/05/21 02:49:02;;;;;;;8.43;5.70;;;14.70;99.90;;;;;;5111426;28;20944;-71
2023/05/21 02:51:29;;;;;;;7.30;5.67;;;14.70;99.90;;;;;;5111962;28;20454;-71
2023/05/21 02:53:56;;;;;;;11.13;7.30;;;14.80;99.90;;;;;;5111097;28;20439;-72
2023/05/21 02:56:23;;;;;;;9.80;6.60;;;14.90;99.90;;;;;;5103083;28;20444;-71
2023/05/21 02:58:51;;;;;;;12.00;6.43;;;14.90;99.90;;;;;;5111340;28;20448;-71
2023/05/21 03:01:18;;;;;;;11.90;6.60;;;14.90;99.90;;;;;;5098231;28;20446;-71
2023/05/21 03:03:46;;;;;;;9.47;5.90;;;14.70;99.90;;;;;;5111228;28;20439;-71
2023/05/21 03:06:15;;;;;;;8.47;6.03;;;14.60;99.90;;;;;;5111677;28;20448;-72
2023/05/21 03:08:41;;;;;;;8.63;6.53;;;14.60;99.90;;;;;;5110979;28;20502;-71
2023/05/21 03:11:08;;;;;;;8.67;6.60;;;14.60;99.90;;;;;;5111738;28;20448;-70
2023/05/21 03:13:35;;;;;;;11.37;6.57;;;14.70;99.90;;;;;;5111803;28;20453;-72
2023/05/21 03:16:02;;;;;;;7.47;5.47;;;14.80;99.90;;;;;;5110936;28;20456;-71
2023/05/21 03:18:29;;;;;;;10.40;6.43;;;14.80;99.90;;;;;;5111980;28;20455;-70
2023/05/21 03:20:57;;;;;;;8.67;5.93;;;14.90;99.90;;;;;;5111165;28;20450;-70
2023/05/21 03:23:24;;;;;;;8.30;4.73;;;14.80;99.90;;;;;;5111615;28;20447;-71
2023/05/21 03:25:51;;;;;;;9.07;6.30;;;14.60;99.90;;;;;;5111281;28;20450;-71
2023/05/21 03:28:18;;;;;;;8.73;5.43;;;14.60;99.90;;;;;;5111874;28;20483;-71
2023/05/21 03:30:46;;;;;;;12.60;6.63;;;14.40;99.90;;;;;;5111387;28;20444;-71
2023/05/21 03:33:12;;;;;;;9.40;5.60;;;14.40;99.90;;;;;;5111623;28;20455;-71
2023/05/21 03:35:40;;;;;;;9.60;5.90;;;14.20;99.90;;;;;;5111871;28;20464;-71
2023/05/21 03:38:08;;;;;;;9.10;5.53;;;14.20;99.90;;;;;;5111980;28;20451;-71
2023/05/21 03:40:35;;;;;;;8.97;6.57;;;14.50;99.90;;;;;;5112115;28;20446;-71
2023/05/21 03:43:02;;;;;;;10.33;5.30;;;14.50;99.90;;;;;;5110741;28;20443;-71
2023/05/21 03:45:28;;;;;;;10.20;5.90;;;14.30;99.90;;;;;;5111298;28;20452;-70
2023/05/21 03:47:55;;;;;;;9.10;6.20;;;14.20;99.90;;;;;;5111018;28;20485;-71
2023/05/21 03:50:22;;;;;;;10.10;5.77;;;14.10;99.90;;;;;;5111453;28;20485;-70
2023/05/21 03:52:49;;;;;;;8.37;6.00;;;14.10;99.90;;;;;;5111107;28;20447;-71
2023/05/21 03:55:17;;;;;;;10.30;5.73;;;14.10;99.90;;;;;;5111316;28;20452;-70
2023/05/21 03:57:44;;;;;;;7.17;5.30;;;14.10;99.90;;;;;;5110565;28;20459;-70
2023/05/21 04:00:12;;;;;;;8.93;6.60;;;14.00;99.90;;;;;;5111486;28;20500;-70
2023/05/21 04:02:39;;;;;;;9.07;5.80;;;14.20;99.90;;;;;;5111587;28;20509;-70
2023/05/21 04:05:07;;;;;;;8.80;6.07;;;14.30;99.90;;;;;;5111315;28;20443;-70
2023/05/21 04:07:37;;;;;;;11.00;5.67;;;14.20;99.90;;;;;;5111132;28;20498;-70
2023/05/21 04:10:04;;;;;;;9.40;5.70;;;14.20;99.90;;;;;;5110910;28;20986;-70
2023/05/21 04:12:32;;;;;;;9.23;5.43;;;14.00;99.90;;;;;;5110893;28;20443;-70
2023/05/21 04:15:01;;;;;;;9.00;5.60;;;14.00;99.90;;;;;;5110175;28;20463;-70
2023/05/21 04:17:28;;;;;;;7.27;5.47;;;14.10;99.90;;;;;;5111278;28;20451;-70
2023/05/21 04:19:55;;;;;;;11.87;6.10;;;14.00;99.90;;;;;;5110827;28;20443;-70
2023/05/21 04:22:22;;;;;;;7.00;4.70;;;14.20;99.90;;;;;;5111412;28;20450;-70
2023/05/21 04:24:49;;;;;;;7.47;5.60;;;14.10;99.90;;;;;;5110169;28;20455;-70
2023/05/21 04:27:16;;;;;;;9.10;5.97;;;14.10;99.90;;;;;;5111037;28;20490;-71
2023/05/21 04:29:44;;;;;;;9.80;5.90;;;14.10;99.90;;;;;;5110709;28;20452;-71
2023/05/21 04:32:13;;;;;;;9.30;6.87;;;14.30;99.90;;;;;;5110865;28;20450;-70
2023/05/21 04:34:41;;;;;;;8.17;5.40;;;14.40;99.90;;;;;;5110714;28;20451;-72
2023/05/21 04:37:08;;;;;;;9.13;7.00;;;14.30;99.90;;;;;;5111558;28;20462;-70
2023/05/21 04:39:35;;;;;;;7.70;5.83;;;14.20;99.90;;;;;;5111237;28;20444;-70
2023/05/21 04:42:02;;;;;;;9.77;6.57;;;14.20;99.90;;;;;;5110434;28;20447;-70
2023/05/21 04:44:29;;;;;;;10.63;7.07;;;14.40;99.90;;;;;;5110296;28;20550;-70
2023/05/21 04:46:57;;;;;;;11.17;6.70;;;14.30;99.90;;;;;;5110435;28;20444;-71
2023/05/21 04:49:24;;;;;;;10.77;6.10;;;14.40;99.90;;;;;;5111141;28;20459;-71
2023/05/21 04:51:51;;;;;;;11.27;6.60;;;14.30;99.90;;;;;;5110505;28;20435;-70
2023/05/21 04:54:18;;;;;;;8.67;5.90;;;14.50;99.90;;;;;;5110579;28;20456;-71
2023/05/21 04:56:46;;;;;;;8.63;5.73;;;14.40;99.90;;;;;;5103864;28;20444;-71
2023/05/21 04:59:12;;;;;;;8.77;6.10;;;14.50;99.90;;;;;;5113957;28;20447;-71
2023/05/21 05:01:40;;;;;;;8.47;5.90;;;14.30;99.90;;;;;;5101879;28;20451;-70
2023/05/21 05:04:08;;;;;;;9.20;7.10;;;14.40;99.90;;;;;;5114248;28;20802;-71
2023/05/21 05:06:35;;;;;;;9.40;6.20;;;14.50;99.90;;;;;;5115095;28;20856;-71
2023/05/21 05:09:03;;;;;;;8.77;6.37;;;14.50;99.90;;;;;;5113549;28;20930;-71
2023/05/21 05:11:30;;;;;;;10.30;7.10;;;14.50;99.90;;;;;;5114562;28;20541;-71
2023/05/21 05:13:57;;;;;;;9.33;6.30;;;14.50;99.90;;;;;;5112902;28;20923;-70
2023/05/21 05:16:25;;;;;;;11.60;5.93;;;14.50;99.90;;;;;;5114430;28;20934;-71
2023/05/21 05:18:52;;;;;;;8.70;6.00;;;14.50;99.90;;;;;;5113578;28;20454;-71
2023/05/21 05:21:22;;;;;;;10.63;7.23;;;14.60;99.90;;;;;;5114131;28;20447;-71
2023/05/21 05:23:49;;;;;;;12.57;6.10;;;14.70;99.90;;;;;;5110052;28;20444;-70
2023/05/21 05:26:16;;;;;;;8.53;5.63;;;14.70;99.90;;;;;;5113228;28;20524;-70
2023/05/21 05:28:42;;;;;;;8.10;6.37;;;14.60;99.90;;;;;;5113053;28;20541;-71
2023/05/21 05:31:10;;;;;;;7.93;6.03;;;14.60;99.90;;;;;;5114396;28;20812;-71
2023/05/21 05:33:36;;;;;;;8.63;5.47;;;14.70;99.90;;;;;;5113434;28;20483;-71
2023/05/21 05:36:03;;;;;;;10.17;6.40;;;14.80;99.90;;;;;;5113490;28;20813;-70
2023/05/21 05:38:32;;;;;;;9.10;6.80;;;15.00;99.90;;;;;;5114051;28;20793;-70
2023/05/21 05:40:58;;;;;;;9.60;5.70;;;15.10;99.90;;;;;;5113536;28;20448;-70
2023/05/21 05:43:25;;;;;;;9.83;6.10;;;15.10;99.90;;;;;;5113098;28;20455;-71
2023/05/21 05:45:52;;;;;;;7.80;5.13;;;15.10;99.90;;;;;;5113272;28;20444;-71
2023/05/21 05:48:19;;;;;;;11.97;6.60;;;15.00;99.90;;;;;;5113721;28;20567;-71
2023/05/21 05:50:46;;;;;;;9.83;6.67;;;15.10;99.90;;;;;;5112952;28;20818;-71
2023/05/21 05:53:13;;;;;;;10.73;6.70;;;15.10;99.90;;;;;;5113187;28;20490;-71
2023/05/21 05:55:41;;;;;;;8.63;6.30;;;15.20;99.90;;;;;;5107236;28;20460;-71
2023/05/21 05:58:08;;;;;;;11.03;6.40;;;15.40;99.90;;;;;;5111648;28;20949;-71
2023/05/21 06:00:35;;;;;;;8.83;5.47;;;15.30;99.90;;;;;;5101231;28;20965;-72
2023/05/21 06:03:02;;;;;;;8.13;5.70;;;15.40;99.90;;;;;;5111712;28;20454;-69
2023/05/21 06:05:29;;;;;;;9.40;6.13;;;15.40;99.90;;;;;;5113309;28;20450;-72
2023/05/21 06:07:55;;;;;;;9.00;5.50;;;15.60;99.90;;;;;;5111386;28;20486;-70
2023/05/21 06:10:22;;;;;;;10.37;6.07;;;15.70;99.90;;;;;;5113478;28;20478;-70
2023/05/21 06:12:50;;;;;;;9.20;6.17;;;15.70;99.90;;;;;;5112268;28;20435;-70
2023/05/21 06:15:18;;;;;;;9.57;7.53;;;15.80;99.90;;;;;;5113035;28;20450;-71
2023/05/21 06:17:45;;;;;;;9.67;6.60;;;15.80;99.90;;;;;;5112783;28;20482;-71
2023/05/21 06:20:12;;;;;;;8.60;5.90;;;15.80;99.90;;;;;;5113212;28;20887;-70
2023/05/21 06:22:39;;;;;;;7.97;5.93;;;15.90;99.90;;;;;;5113084;28;20463;-71
2023/05/21 06:25:09;;;;;;;9.00;6.13;;;16.10;99.90;;;;;;5111045;28;20455;-71
2023/05/21 06:27:36;;;;;;;9.07;6.77;;;16.20;99.90;;;;;;5100434;28;20543;-70
2023/05/21 06:30:05;;;;;;;10.17;6.53;;;16.20;99.90;;;;;;5112160;28;20948;-71
2023/05/21 06:32:31;;;;;;;9.67;5.70;;;16.30;99.90;;;;;;5112726;28;20462;-71
2023/05/21 06:34:58;;;;;;;9.03;5.87;;;16.40;99.90;;;;;;5111561;28;20455;-71
2023/05/21 06:37:25;;;;;;;9.50;7.20;;;16.40;99.90;;;;;;5112815;28;20451;-71
2023/05/21 06:39:52;;;;;;;8.97;7.03;;;16.50;99.90;;;;;;5112004;28;20962;-71
2023/05/21 06:42:19;;;;;;;8.73;6.77;;;16.60;99.90;;;;;;5112923;28;20444;-71
2023/05/21 06:44:45;;;;;;;10.27;5.83;;;16.60;99.90;;;;;;5111839;28;20444;-72
2023/05/21 06:47:13;;;;;;;9.17;7.03;;;16.60;99.90;;;;;;5112405;28;20452;-71
2023/05/21 06:49:41;;;;;;;10.63;6.90;;;16.70;99.90;;;;;;5112437;28;20484;-73
2023/05/21 06:52:07;;;;;;;7.73;5.60;;;16.80;99.90;;;;;;5112836;28;20450;-71
2023/05/21 06:54:34;;;;;;;8.53;6.27;;;16.80;99.90;;;;;;5111845;28;20444;-71
2023/05/21 06:57:01;;;;;;;8.60;5.50;;;16.80;99.90;;;;;;5103622;28;20507;-71
2023/05/21 06:59:28;;;;;;;7.93;6.63;;;16.90;99.90;;;;;;5112209;28;20459;-71
2023/05/21 07:01:55;;;;;;;9.83;6.33;;;17.00;99.90;;;;;;5111844;28;20462;-71
2023/05/21 07:04:23;;;;;;;7.70;5.70;;;17.00;58.80;;;;;;5111616;28;20537;-71
2023/05/21 07:06:51;;;;;;;10.40;6.93;;;17.10;1.00;;;;;;5111614;28;20846;-71
2023/05/21 07:09:18;;;;;;;10.47;6.20;;;17.20;99.90;;;;;;5111902;28;20884;-71
2023/05/21 07:11:45;;;;;;;35.47;6.97;;;17.30;1.00;;;;;;5111323;28;20539;-71
2023/05/21 07:14:11;;;;;;;8.70;5.67;;;17.40;1.00;;;;;;5111484;28;20447;-71
2023/05/21 07:16:39;;;;;;;8.00;6.17;;;17.40;99.90;;;;;;5112468;28;20453;-72
2023/05/21 07:19:06;;;;;;;8.07;6.13;;;17.50;99.90;;;;;;5111600;28;20456;-71
2023/05/21 07:21:34;;;;;;;8.70;5.13;;;17.60;99.90;;;;;;5111933;28;20444;-71
2023/05/21 07:24:01;;;;;;;9.80;6.63;;;17.60;1.00;;;;;;5110634;28;20884;-71
2023/05/21 07:26:27;;;;;;;9.60;6.30;;;17.70;1.00;;;;;;5109523;28;20450;-71
2023/05/21 07:28:54;;;;;;;6.83;5.40;;;17.80;1.00;;;;;;5110660;28;21016;-71
2023/05/21 07:31:21;;;;;;;11.37;6.03;;;17.90;1.00;;;;;;5111825;28;20448;-71
2023/05/21 07:33:48;;;;;;;6.03;4.53;;;18.00;1.00;;;;;;5110873;28;20821;-72
2023/05/21 07:36:15;;;;;;;7.50;4.90;;;18.00;99.90;;;;;;5111704;28;20447;-71
2023/05/21 07:38:43;;;;;;;7.73;5.80;;;18.10;99.90;;;;;;5111188;28;20462;-72
2023/05/21 07:41:10;;;;;;;8.67;5.90;;;18.20;1.00;;;;;;5111591;28;20456;-72
2023/05/21 07:43:38;;;;;;;8.80;5.70;;;18.30;1.00;;;;;;5111240;28;20531;-70
2023/05/21 07:46:05;;;;;;;7.60;5.47;;;18.50;99.90;;;;;;5110841;28;20458;-70
2023/05/21 07:48:31;;;;;;;6.47;5.87;;;18.50;99.90;;;;;;5111420;28;20515;-71
2023/05/21 07:50:59;;;;;;;8.17;5.87;;;18.40;99.90;;;;;;5111018;28;20454;-71
2023/05/21 07:53:26;;;;;;;8.10;5.60;;;18.60;99.90;;;;;;5110955;28;20447;-71
2023/05/21 07:55:54;;;;;;;7.20;4.93;;;18.70;1.00;;;;;;5102567;28;20449;-71
2023/05/21 07:58:22;;;;;;;7.60;5.30;;;18.90;1.00;;;;;;5110144;28;20458;-71
2023/05/21 08:00:49;;;;;;;7.40;5.70;;;18.90;99.90;;;;;;5096954;28;20931;-72
2023/05/21 08:03:17;;;;;;;8.57;5.77;;;19.00;99.90;;;;;;5110972;28;20447;-71
2023/05/21 08:05:47;;;;;;;7.00;5.90;;;19.10;99.90;;;;;;5110362;28;20460;-71
2023/05/21 08:08:17;;;;;;;7.67;5.87;;;19.20;99.90;;;;;;5111122;28;20781;-71
2023/05/21 08:10:44;;;;;;;5.73;4.73;;;19.20;99.90;;;;;;5110493;28;20522;-69
2023/05/21 08:13:13;;;;;;;7.30;6.40;;;19.30;99.90;;;;;;5110768;28;20453;-72
2023/05/21 08:15:40;;;;;;;9.77;5.83;;;19.30;99.90;;;;;;5111369;28;20471;-72
2023/05/21 08:18:07;;;;;;;9.07;6.37;;;19.50;26.30;;;;;;5111314;28;20458;-72
2023/05/21 08:20:34;;;;;;;13.03;7.10;;;19.60;26.50;;;;;;5111138;28;20452;-72
2023/05/21 08:23:01;;;;;;;7.03;6.07;;;19.60;1.00;;;;;;5109845;28;20572;-72
2023/05/21 08:25:28;;;;;;;7.83;6.13;;;19.60;1.00;;;;;;5108427;28;20535;-72
2023/05/21 08:27:56;;;;;;;6.50;5.07;;;19.70;1.00;;;;;;5110402;28;20450;-72
2023/05/21 08:30:24;;;;;;;6.03;5.00;;;20.00;1.00;;;;;;5111090;28;20475;-72
2023/05/21 08:32:51;;;;;;;8.60;5.50;;;20.10;1.00;;;;;;5113681;28;20501;-72
2023/05/21 08:35:17;;;;;;;6.10;4.90;;;20.20;1.00;;;;;;5115051;28;20474;-72
2023/05/21 08:37:44;;;;;;;6.83;5.17;;;20.10;1.00;;;;;;5114595;28;20525;-72
2023/05/21 08:40:12;;;;;;;6.60;5.07;;;20.20;1.00;;;;;;5114594;28;20451;-71
2023/05/21 08:42:43;;;;;;;5.80;4.50;;;20.10;1.00;;;;;;5115117;28;20454;-71
2023/05/21 08:45:12;;;;;;;5.97;5.00;;;20.10;1.00;;;;;;5114552;28;20447;-71
2023/05/21 08:47:42;;;;;;;5.67;4.57;;;20.20;1.00;;;;;;5114826;28;20516;-71
2023/05/21 08:50:10;;;;;;;8.20;5.87;;;20.50;1.00;;;;;;5114752;28;20823;-71
2023/05/21 08:52:37;;;;;;;6.83;5.23;;;20.60;1.00;;;;;;5114381;28;20987;-70
2023/05/21 08:55:05;;;;;;;6.43;4.60;;;20.60;1.00;;;;;;5112610;28;20526;-71
2023/05/21 08:57:32;;;;;;;7.80;6.43;;;21.00;1.00;;;;;;5106060;28;20455;-72
2023/05/21 08:59:59;;;;;;;6.93;5.70;;;20.90;99.90;;;;;;5106790;28;20891;-72
2023/05/21 09:02:25;;;;;;;7.67;6.07;;;20.90;99.90;;;;;;5107739;28;20457;-71
2023/05/21 09:04:57;;;;;;;5.83;4.17;;;20.80;99.90;;;;;;5113182;28;20954;-72
2023/05/21 09:07:26;;;;;;;7.60;5.43;;;20.80;1.00;;;;;;5114232;28;20451;-71
2023/05/21 09:09:56;;;;;;;7.47;5.83;;;21.00;99.90;;;;;;5113452;28;20985;-71
2023/05/21 09:12:23;;;;;;;7.37;5.40;;;21.10;99.90;;;;;;5113883;28;20448;-71
2023/05/21 09:14:50;;;;;;;5.63;4.90;;;20.80;99.90;;;;;;5113191;28;20459;-71
2023/05/21 09:17:19;;;;;;;7.07;5.33;;;20.80;99.90;;;;;;5113934;28;20934;-72
2023/05/21 09:20:08;;;;;;;8.10;5.43;;;21.00;99.90;;;;;;5113419;28;20455;-72
2023/05/21 09:22:35;;;;;;;6.23;5.10;;;21.10;99.90;;;;;;5114124;28;20446;-71
2023/05/21 09:25:06;;;;;;;6.50;5.20;;;21.10;99.90;;;;;;5113433;28;20452;-71
2023/05/21 09:27:33;;;;;;;6.63;5.27;;;21.20;99.90;;;;;;5113931;28;20847;-71
2023/05/21 09:30:01;;;;;;;6.10;5.33;;;21.10;99.90;;;;;;5113268;28;20786;-71
2023/05/21 09:32:28;;;;;;;5.10;4.60;;;20.90;99.90;;;;;;5113960;28;20860;-71
2023/05/21 09:34:55;;;;;;;6.57;4.70;;;21.10;99.90;;;;;;5112997;28;20455;-72
2023/05/21 09:37:23;;;;;;;4.63;3.67;;;21.10;99.90;;;;;;5113645;28;20467;-71
2023/05/21 09:39:50;;;;;;;5.90;4.80;;;21.00;99.90;;;;;;5113373;28;20439;-72
2023/05/21 09:42:21;;;;;;;9.70;4.97;;;21.00;99.90;;;;;;5113635;28;20448;-71
2023/05/21 09:44:48;;;;;;;7.23;4.87;;;21.10;99.90;;;;;;5112668;28;20450;-72
2023/05/21 09:47:20;;;;;;;5.57;4.53;;;21.20;99.90;;;;;;5113338;28;20960;-71
2023/05/21 09:49:49;;;;;;;8.07;6.23;;;21.20;99.90;;;;;;5112971;28;20471;-70
2023/05/21 09:52:25;;;;;;;5.37;4.83;;;21.30;99.90;;;;;;5113311;28;20901;-71
2023/05/21 09:54:52;;;;;;;5.70;4.40;;;21.40;99.90;;;;;;5112284;28;20952;-71
2023/05/21 09:57:24;;;;;;;4.83;3.90;;;21.50;99.90;;;;;;5104100;28;20443;-71
2023/05/21 09:59:51;;;;;;;5.27;4.77;;;21.50;99.90;;;;;;5112687;28;20439;-71
2023/05/21 10:02:20;;;;;;;5.97;4.80;;;21.50;99.90;;;;;;5113099;28;20953;-70
2023/05/21 10:04:48;;;;;;;5.50;4.67;;;21.70;99.90;;;;;;5112628;28;20892;-71
2023/05/21 10:07:18;;;;;;;5.83;4.80;;;21.60;99.90;;;;;;5113171;28;20474;-71
2023/05/21 10:09:48;;;;;;;5.90;4.90;;;21.70;99.90;;;;;;5112511;28;20487;-71
2023/05/21 10:12:18;;;;;;;6.00;4.70;;;21.60;99.90;;;;;;5112786;28;20497;-71
2023/05/21 10:14:51;;;;;;;5.43;4.20;;;21.70;99.90;;;;;;5112073;28;20439;-72
2023/05/21 10:17:19;;;;;;;5.50;4.60;;;22.00;99.90;;;;;;5113187;28;20512;-71
2023/05/21 10:19:47;;;;;;;5.50;4.40;;;22.00;99.90;;;;;;5112362;28;20823;-71
2023/05/21 10:22:15;;;;;;;6.43;4.70;;;21.90;99.90;;;;;;5112675;28;20547;-71
2023/05/21 10:24:45;;;;;;;5.83;4.90;;;22.00;99.90;;;;;;5111701;28;20459;-71
2023/05/21 10:27:14;;;;;;;5.63;4.77;;;22.10;99.90;;;;;;5111410;28;20447;-71
2023/05/21 10:29:43;;;;;;;4.30;3.90;;;21.90;99.90;;;;;;5111620;28;20533;-73
2023/05/21 10:32:12;;;;;;;7.37;5.17;;;21.90;99.90;;;;;;5112129;28;20447;-71
2023/05/21 10:34:40;;;;;;;5.00;4.30;;;22.10;99.90;;;;;;5112119;27;20597;-71
2023/05/21 10:37:09;;;;;;;5.13;4.40;;;22.00;99.90;;;;;;5112654;27;20459;-71
2023/05/21 10:39:36;;;;;;;6.17;4.63;;;22.00;99.90;;;;;;5112911;27;20450;-70
2023/05/21 10:42:20;;;;;;;5.20;4.40;;;22.20;99.90;;;;;;5111839;28;20551;-70
2023/05/21 10:45:02;;;;;;;6.40;4.30;;;22.20;99.90;;;;;;5113835;27;20452;-70
2023/05/21 10:48:05;;;;;;;5.97;4.63;;;22.30;99.90;;;;;;5112868;27;20443;-77
2023/05/21 10:51:00;;;;;;;5.60;4.33;;;22.30;99.90;;;;;;5029202;28;21069;-70
2023/05/21 10:53:37;;;;;;;5.93;4.60;;;22.30;99.90;;;;;;5110380;28;20463;-68
2023/05/21 10:56:14;;;;;;;6.17;4.77;;;22.20;99.90;;;;;;5110176;27;20505;-70
2023/05/21 10:59:14;;;;;;;4.77;3.80;;;22.50;99.90;;;;;;5112166;27;20627;-73
2023/05/21 11:01:43;;;;;;;4.83;3.90;;;22.40;99.90;;;;;;5105201;28;20489;-72
2023/05/21 11:04:14;;;;;;;5.97;4.30;;;22.50;99.90;;;;;;5114052;27;20444;-69
2023/05/21 11:06:46;;;;;;;6.83;4.83;;;22.70;99.90;;;;;;5111155;28;20444;-71
2023/05/21 11:09:14;;;;;;;4.73;4.17;;;22.80;99.90;;;;;;5111902;27;20993;-69
2023/05/21 11:11:43;;;;;;;5.40;4.10;;;22.90;99.90;;;;;;5112824;27;20443;-70
2023/05/21 11:14:34;;;;;;;5.00;4.30;;;22.80;99.90;;;;;;5111490;27;20505;-68
2023/05/21 11:17:02;;;;;;;6.47;4.30;;;23.00;99.90;;;;;;5113157;27;20457;-68
2023/05/21 11:19:36;;;;;;;4.80;4.30;;;23.20;99.90;;;;;;5110779;28;20462;-69
2023/05/21 11:22:10;;;;;;;5.50;4.97;;;23.30;99.90;;;;;;5110738;28;20527;-69
2023/05/21 11:24:41;;;;;;;6.37;5.47;;;23.20;99.90;;;;;;5110327;28;20522;-69
2023/05/21 11:27:08;;;;;;;5.60;4.77;;;23.20;99.90;;;;;;5118602;27;21006;-67
2023/05/21 11:29:44;;;;;;;5.93;4.37;;;23.30;99.90;;;;;;5109837;28;20890;-68
2023/05/21 11:32:14;;;;;;;8.10;5.20;;;23.60;99.90;;;;;;5111118;28;20440;-69
2023/05/21 11:34:44;;;;;;;4.90;3.93;;;23.50;99.90;;;;;;5119941;27;20792;-71
2023/05/21 11:37:27;;;;;;;6.43;4.90;;;23.30;99.90;;;;;;5111369;28;20626;-68
2023/05/21 11:39:55;;;;;;;5.77;4.57;;;23.30;99.90;;;;;;5112558;27;20956;-67
2023/05/21 11:42:30;;;;;;;4.50;3.90;;;23.40;99.90;;;;;;5111561;27;20447;-70
2023/05/21 11:45:00;;;;;;;5.27;3.50;;;23.60;99.90;;;;;;5107539;28;20451;-68
2023/05/21 11:47:27;;;;;;;5.10;4.30;;;23.80;99.90;;;;;;5109896;28;20447;-67
2023/05/21 11:49:55;;;;;;;5.17;4.40;;;23.80;99.90;;;;;;5113104;27;20475;-66
2023/05/21 11:52:23;;;;;;;4.60;3.90;;;24.00;99.90;;;;;;5113874;28;20451;-68
2023/05/21 11:54:53;;;;;;;4.37;3.97;;;23.80;99.90;;;;;;5109753;28;20444;-67
2023/05/21 11:57:21;;;;;;;6.83;5.00;;;23.80;99.90;;;;;;5110379;28;20444;-70
2023/05/21 11:59:50;;;;;;;5.00;3.77;;;23.90;99.90;;;;;;5110464;28;20451;-68
2023/05/21 12:02:19;;;;;;;4.87;3.97;;;23.90;99.90;;;;;;5116540;28;20482;-67
2023/05/21 12:04:48;;;;;;;6.37;4.00;;;23.80;99.90;;;;;;5108757;28;20451;-67
2023/05/21 12:07:17;;;;;;;6.30;4.50;;;24.10;99.90;;;;;;5113058;28;20471;-67
2023/05/21 12:09:46;;;;;;;4.63;4.13;;;24.10;99.90;;;;;;5115160;28;20846;-67
2023/05/21 12:12:14;;;;;;;5.70;4.60;;;24.20;99.90;;;;;;5115566;28;20436;-67
2023/05/21 12:14:45;;;;;;;5.60;4.43;;;24.10;99.90;;;;;;5114198;28;20824;-67
2023/05/21 12:17:12;;;;;;;4.73;3.60;;;24.20;99.90;;;;;;5115014;28;20857;-68
2023/05/21 12:19:41;;;;;;;4.30;3.90;;;24.30;99.90;;;;;;5114207;28;20454;-67
2023/05/21 12:22:08;;;;;;;4.77;3.77;;;24.50;99.90;;;;;;5115288;28;20441;-67
2023/05/21 12:24:37;;;;;;;5.70;5.00;;;24.70;99.90;;;;;;5115649;27;20946;-67
2023/05/21 12:27:08;;;;;;;5.93;3.70;;;24.50;99.90;;;;;;5113494;28;20454;-67
2023/05/21 12:29:37;;;;;;;5.00;3.80;;;24.50;99.90;;;;;;5113615;28;20439;-67
2023/05/21 12:32:07;;;;;;;5.43;3.70;;;24.60;99.90;;;;;;5112571;28;21068;-69
2023/05/21 12:34:47;;;;;;;4.50;3.63;;;24.60;99.90;;;;;;5114527;27;20470;-67
2023/05/21 12:37:20;;;;;;;4.03;3.63;;;24.60;99.90;;;;;;5123868;27;21009;-66
2023/05/21 12:39:52;;;;;;;4.10;3.50;;;24.60;99.90;;;;;;5114315;28;20831;-68
2023/05/21 12:42:25;;;;;;;4.50;2.77;;;24.80;99.90;;;;;;5113646;27;20447;-67
2023/05/21 12:44:53;;;;;;;4.10;3.70;;;24.70;99.90;;;;;;5113461;27;20436;-66
2023/05/21 12:47:23;;;;;;;4.80;3.60;;;24.70;98.00;;;;;;5113445;27;20451;-70
2023/05/21 12:50:03;;;;;;;4.20;3.80;;;24.60;98.30;;;;;;5110911;28;20475;-67
2023/05/21 12:52:35;;;;;;;4.33;3.80;;;24.90;96.80;;;;;;5117520;27;20444;-67
2023/05/21 12:55:01;;;;;;;4.00;3.23;;;25.10;94.50;;;;;;5111898;28;20461;-67